»·PEaware :: N129WS KAJO-KSNA

N129WS :: KAJO-KSNA

FLIGHT INFORMATION

Flight Status: Arrived
Operator: Privately registered:
United States
More flights under this callsign
Pilot: Michael M. (12217)
Aircraft: PIPER PA-28 CHEROKEE ARCHER
(PA28)
More flights by this aircraft type
Origin: KAJO Corona Mun
United States
Destination: KSNA John Wayne-Orange Co
United States
More flights between these airports :: More routes between these airports
Route: +
File this flight plan on PilotEdge
Remarks: VFR Advisores
Altitude:
(Current/Filed)
3,500ft
Speed:
(Current/Filed)
120kts
Departed: 14-Mar-17 02:31 PM
Arrived: 14-Mar-17 02:58 PM
Distance/Time
Traveled:
19nm/0:26
Distance/Time
To Go:
Arrived

Flight Plot

Page will automatically refresh every two minutes.


Map Options




Map Legend


Flown Route
Filed Route
Departure Airport
Arrival Airport
Navaid (VOR, NDB)
Fix

Horizontal Profiles

Position Reports

Time Latitude Longitude Heading Altitude Ground
Speed
14-Mar-17 14:17 33.897309 -117.597750 68 535ft 0kts
14-Mar-17 14:18 33.897309 -117.597750 68 535ft 0kts
14-Mar-17 14:19 33.897309 -117.597750 68 535ft 0kts
14-Mar-17 14:20 33.897309 -117.597750 68 535ft 0kts
14-Mar-17 14:21 33.897309 -117.597750 68 535ft 0kts
14-Mar-17 14:22 33.897309 -117.597750 68 535ft 0kts
14-Mar-17 14:23 33.897401 -117.597584 37 535ft 0kts
14-Mar-17 14:24 33.897401 -117.597584 37 535ft 0kts
14-Mar-17 14:25 33.897401 -117.597584 37 535ft 0kts
14-Mar-17 14:26 33.897401 -117.597584 37 535ft 0kts
14-Mar-17 14:27 33.897401 -117.597584 37 535ft 0kts
14-Mar-17 14:28 33.896738 -117.597524 90 535ft 0kts
14-Mar-17 14:29 33.896985 -117.601764 359 535ft 0kts
14-Mar-17 14:30 33.897287 -117.599342 84 535ft 10kts
14-Mar-17 14:31 33.897553 -117.597416 20 535ft 2kts
14-Mar-17 14:32 33.897533 -117.607350 271 738ft 73kts
14-Mar-17 14:33 33.897800 -117.630252 272 1632ft 78kts
14-Mar-17 14:34 33.878686 -117.638350 158 2490ft 90kts
14-Mar-17 14:35 33.862463 -117.654566 240 3199ft 99kts
14-Mar-17 14:36 33.845612 -117.686207 226 3461ft 118kts
14-Mar-17 14:37 33.817550 -117.708683 219 3573ft 117kts
14-Mar-17 14:38 33.792539 -117.733969 213 3083ft 114kts
14-Mar-17 14:39 33.765164 -117.746576 200 2844ft 97kts
14-Mar-17 14:40 33.740686 -117.760580 211 2563ft 113kts
14-Mar-17 14:41 33.719340 -117.783721 241 1402ft 105kts
14-Mar-17 14:42 33.709459 -117.814817 253 209ft 87kts
14-Mar-17 14:43 33.704133 -117.838463 254 611ft 78kts
14-Mar-17 14:44 33.687655 -117.849157 271 879ft 112kts
14-Mar-17 14:45 33.672284 -117.870910 207 58ft 58kts
14-Mar-17 14:46 33.656481 -117.880758 155 782ft 70kts
14-Mar-17 14:47 33.669073 -117.862500 28 958ft 88kts
14-Mar-17 14:48 33.689070 -117.844936 29 597ft 86kts
14-Mar-17 14:49 33.689995 -117.857367 216 234ft 77kts
14-Mar-17 14:50 33.673064 -117.868891 212 201ft 77kts
14-Mar-17 14:51 33.655433 -117.865039 77 971ft 108kts
14-Mar-17 14:52 33.679613 -117.846304 30 905ft 92kts
14-Mar-17 14:53 33.694564 -117.851082 242 689ft 67kts
14-Mar-17 14:54 33.680855 -117.863647 207 64ft 50kts
14-Mar-17 14:55 33.666054 -117.874442 209 668ft 77kts
14-Mar-17 14:56 33.662230 -117.863644 16 1082ft 96kts
14-Mar-17 14:57 33.685394 -117.852515 23 744ft 86kts
14-Mar-17 14:58 33.687125 -117.859547 207 278ft 76kts
14-Mar-17 14:59 33.677054 -117.865832 152 58ft 5kts
14-Mar-17 15:00 33.676879 -117.865533 120 58ft 0kts
14-Mar-17 15:01 33.676836 -117.865461 127 58ft 1kts
14-Mar-17 15:02 33.676363 -117.865054 193 58ft 5kts
14-Mar-17 15:03 33.673928 -117.866606 208 58ft 10kts
14-Mar-17 15:04 33.673173 -117.867121 181 58ft 5kts
14-Mar-17 15:05 33.671718 -117.867614 212 58ft 5kts
14-Mar-17 15:06 33.671666 -117.867652 210 58ft 0kts
14-Mar-17 15:07 33.671666 -117.867652 210 58ft 0kts
14-Mar-17 15:08 33.671666 -117.867652 210 58ft 0kts
14-Mar-17 15:09 33.671666 -117.867652 210 58ft 0kts
14-Mar-17 15:10 33.671666 -117.867652 210 58ft 0kts

Navigation Log

Ident Type
1. KAJO Airport
2. KSNA Airport